createdAt,value
2018-09-01T11:05:53.709Z,67.50
2018-09-01T11:08:22.143Z,67.20
2018-09-01T11:10:50.635Z,67.70
2018-09-01T11:13:19.094Z,68.30
2018-09-01T11:15:47.558Z,68.50
2018-09-01T11:18:16.010Z,68.60
2018-09-01T11:20:44.549Z,68.40
2018-09-01T11:23:12.974Z,68.00
2018-09-01T11:25:41.445Z,69.40
2018-09-01T11:28:09.945Z,67.80
2018-09-01T11:30:38.342Z,66.40
2018-09-01T11:33:06.851Z,66.10
2018-09-01T11:35:35.366Z,65.40
2018-09-01T11:38:03.836Z,65.70
2018-09-01T11:40:32.266Z,62.30
2018-09-01T11:43:00.781Z,64.00
2018-09-01T11:45:29.159Z,64.90
2018-09-01T11:47:57.589Z,60.90
2018-09-01T11:50:26.387Z,61.70
2018-09-01T11:52:54.818Z,61.50
2018-09-01T11:55:23.295Z,62.10
2018-09-01T11:57:51.719Z,60.60
2018-09-01T12:00:20.174Z,60.60
2018-09-01T12:02:48.615Z,60.80
2018-09-01T12:05:17.317Z,61.40
2018-09-01T12:07:45.782Z,61.70
2018-09-01T12:10:14.223Z,62.20
2018-09-01T12:12:42.654Z,62.40
2018-09-01T12:15:12.732Z,62.80
2018-09-01T12:17:41.211Z,62.80
2018-09-01T12:20:09.686Z,63.20
2018-09-01T12:22:38.192Z,61.50
2018-09-01T12:25:06.704Z,61.20
2018-09-01T12:27:35.170Z,60.20
2018-09-01T12:30:03.677Z,61.90
2018-09-01T12:32:32.110Z,62.40
2018-09-01T12:35:00.898Z,62.10
2018-09-01T12:37:29.384Z,61.10
2018-09-01T12:39:57.934Z,61.50
2018-09-01T12:42:26.410Z,61.10
2018-09-01T12:44:54.957Z,59.70
2018-09-01T12:47:23.392Z,60.00
2018-09-01T12:49:51.883Z,59.90
2018-09-01T12:52:20.357Z,59.90
2018-09-01T12:54:48.844Z,61.20
2018-09-01T12:57:17.356Z,59.40
2018-09-01T12:59:45.928Z,60.90
2018-09-01T13:02:19.666Z,61.10
2018-09-01T13:04:48.320Z,61.20
2018-09-01T13:07:16.890Z,60.50
2018-09-01T13:09:45.346Z,59.70
2018-09-01T13:12:14.164Z,59.30
2018-09-01T13:14:43.055Z,58.60
2018-09-01T13:17:12.335Z,58.80
2018-09-01T13:19:41.227Z,59.10
2018-09-01T13:22:09.887Z,59.50
2018-09-01T13:24:38.352Z,59.40
2018-09-01T13:27:08.007Z,59.20
2018-09-01T13:29:36.422Z,58.50
2018-09-01T13:32:04.950Z,58.30
2018-09-01T13:34:33.423Z,58.30
2018-09-01T13:37:03.466Z,57.70
2018-09-01T13:39:32.016Z,58.90
2018-09-01T13:42:00.487Z,57.80
2018-09-01T13:44:28.976Z,58.00
2018-09-01T13:46:57.419Z,58.70
2018-09-01T13:49:26.098Z,58.20
2018-09-01T13:51:54.859Z,58.40
2018-09-01T13:54:23.322Z,58.10
2018-09-01T13:56:51.772Z,57.50
2018-09-01T13:59:20.255Z,56.70
2018-09-01T14:01:48.771Z,57.70
2018-09-01T14:04:17.204Z,57.00
2018-09-01T14:06:45.666Z,55.40
2018-09-01T14:09:14.093Z,55.50
2018-09-01T14:11:42.574Z,55.00
2018-09-01T14:14:11.072Z,55.00
2018-09-01T14:16:39.591Z,55.40
2018-09-01T14:19:08.023Z,55.40
2018-09-01T14:21:37.200Z,54.30
2018-09-01T14:25:42.605Z,53.50
2018-09-01T14:28:11.091Z,53.30
2018-09-01T14:30:39.567Z,54.20
2018-09-01T14:33:08.138Z,54.60
2018-09-01T14:35:36.580Z,54.20
2018-09-01T14:38:05.199Z,54.50
2018-09-01T14:40:33.866Z,55.40
2018-09-01T14:43:02.376Z,56.00
2018-09-01T14:45:30.875Z,56.30
2018-09-01T14:48:01.506Z,56.50
2018-09-01T14:50:30.035Z,56.10
2018-09-01T14:52:58.531Z,55.00
2018-09-01T14:55:26.983Z,54.10
2018-09-01T14:57:55.450Z,54.60
2018-09-01T15:01:26.156Z,54.40
2018-09-01T15:03:54.644Z,54.40
2018-09-01T15:06:23.371Z,54.30
2018-09-01T15:08:51.832Z,54.70
2018-09-01T15:11:20.303Z,54.80
2018-09-01T15:13:48.755Z,53.60
2018-09-01T15:16:17.187Z,53.60
2018-09-01T15:18:45.805Z,54.50
2018-09-01T15:21:14.238Z,55.10
2018-09-01T15:23:42.751Z,56.20
2018-09-01T15:26:11.257Z,55.20
2018-09-01T15:28:39.827Z,55.50
2018-09-01T15:31:08.227Z,56.30
2018-09-01T15:33:36.734Z,56.30
2018-09-01T15:36:05.208Z,55.70
2018-09-01T15:38:33.725Z,56.50
2018-09-01T15:41:02.186Z,56.70
2018-09-01T15:43:30.627Z,55.30
2018-09-01T15:45:59.079Z,55.90
2018-09-01T15:48:27.816Z,55.60
2018-09-01T15:50:56.347Z,56.10
2018-09-01T15:53:24.814Z,55.70
2018-09-01T15:55:53.564Z,55.80
2018-09-01T15:58:22.036Z,55.80
2018-09-01T16:00:50.845Z,56.20
2018-09-01T16:03:19.345Z,55.80
2018-09-01T16:05:47.791Z,55.50
2018-09-01T16:08:16.304Z,55.20
2018-09-01T16:10:44.827Z,54.90
2018-09-01T16:13:13.422Z,54.90
2018-09-01T16:15:41.938Z,54.40
2018-09-01T16:18:10.485Z,54.90
2018-09-01T16:20:38.939Z,55.30
2018-09-01T16:23:07.463Z,54.80
2018-09-01T16:25:35.945Z,55.60
2018-09-01T16:28:04.497Z,55.20
2018-09-01T16:30:32.969Z,55.30
2018-09-01T16:33:01.447Z,55.00
2018-09-01T16:35:29.892Z,55.20
2018-09-01T16:37:58.374Z,55.90
2018-09-01T16:40:26.851Z,55.30
2018-09-01T16:42:55.334Z,55.70
2018-09-01T16:45:23.783Z,55.80
2018-09-01T16:47:52.244Z,56.20
2018-09-01T16:50:20.714Z,56.70
2018-09-01T16:52:49.172Z,56.30
2018-09-01T16:55:17.603Z,57.10
2018-09-01T16:57:46.063Z,56.90
2018-09-01T17:00:14.520Z,57.60
2018-09-01T17:02:43.008Z,57.50
2018-09-01T17:05:11.462Z,57.70
2018-09-01T17:07:40.242Z,58.00
2018-09-01T17:10:08.747Z,58.20
2018-09-01T17:12:37.235Z,58.10
2018-09-01T17:15:06.006Z,58.80
2018-09-01T17:17:34.515Z,58.50
2018-09-01T17:20:02.991Z,58.70
2018-09-01T17:22:31.461Z,59.60
2018-09-01T17:24:59.916Z,59.10
2018-09-01T17:27:28.379Z,59.20
2018-09-01T17:29:56.832Z,59.90
2018-09-01T17:32:25.297Z,60.20
2018-09-01T17:34:53.738Z,60.60
2018-09-01T17:37:22.172Z,60.90
2018-09-01T17:39:50.640Z,61.30
2018-09-01T17:42:21.351Z,61.80
2018-09-01T17:44:50.034Z,60.90
2018-09-01T17:47:18.488Z,61.40
2018-09-01T17:49:46.958Z,60.90
2018-09-01T17:52:15.414Z,61.20
2018-09-01T17:54:44.203Z,61.90
2018-09-01T17:57:12.678Z,61.80
2018-09-01T17:59:41.136Z,62.20
2018-09-01T18:02:10.123Z,62.40
2018-09-01T18:04:38.650Z,62.90
2018-09-01T18:07:07.151Z,62.60
2018-09-01T18:09:35.595Z,62.80
2018-09-01T18:12:04.083Z,62.80
2018-09-01T18:14:32.608Z,63.20
2018-09-01T18:17:01.050Z,63.40
2018-09-01T18:19:29.506Z,64.00
2018-09-01T18:21:57.975Z,64.40
2018-09-01T18:24:26.432Z,64.30
2018-09-01T18:26:54.900Z,64.50
2018-09-01T18:29:23.399Z,64.90
2018-09-01T18:31:51.862Z,64.60
2018-09-01T18:34:20.568Z,65.10
2018-09-01T18:36:49.043Z,65.20
2018-09-01T18:39:17.622Z,65.60
2018-09-01T18:41:46.099Z,65.70
2018-09-01T18:44:14.602Z,66.10
2018-09-01T18:46:43.448Z,66.00
2018-09-01T18:49:11.938Z,66.10
2018-09-01T18:51:40.380Z,66.30
2018-09-01T18:54:09.021Z,66.40
2018-09-01T18:56:37.570Z,66.90
2018-09-01T18:59:06.466Z,66.90
2018-09-01T19:01:34.941Z,67.20
2018-09-01T19:04:03.421Z,67.50
2018-09-01T19:06:31.945Z,67.60
2018-09-01T19:09:00.415Z,67.70
2018-09-01T19:11:31.944Z,67.80
2018-09-01T19:14:00.689Z,67.70
2018-09-01T19:16:29.199Z,68.00
2018-09-01T19:18:57.662Z,68.60
2018-09-01T19:21:26.225Z,68.90
2018-09-01T19:23:54.690Z,68.90
2018-09-01T19:26:23.196Z,68.80
2018-09-01T19:28:51.633Z,68.80
2018-09-01T19:31:22.613Z,68.80
2018-09-01T19:33:51.238Z,69.00
2018-09-01T19:36:19.669Z,69.20
2018-09-01T19:38:48.102Z,69.40
2018-09-01T19:41:16.553Z,69.40
2018-09-01T19:43:44.996Z,69.40
2018-09-01T19:46:13.553Z,69.90
2018-09-01T19:48:41.963Z,70.50
2018-09-01T19:51:10.784Z,70.40
2018-09-01T19:53:39.170Z,70.30
2018-09-01T19:56:07.635Z,70.20
2018-09-01T19:58:36.050Z,70.50
2018-09-01T20:01:04.587Z,70.90
2018-09-01T20:03:33.027Z,70.90
2018-09-01T20:06:01.463Z,71.30
2018-09-01T20:08:29.902Z,71.60
2018-09-01T20:10:58.360Z,71.60
2018-09-01T20:13:26.815Z,71.60
2018-09-01T20:15:55.300Z,71.40
2018-09-01T20:18:23.743Z,72.10
2018-09-01T20:20:52.196Z,72.00
2018-09-01T20:23:20.670Z,72.00
2018-09-01T20:25:49.123Z,72.20
2018-09-01T20:28:17.815Z,73.30
2018-09-01T20:30:46.319Z,72.80
2018-09-01T20:33:14.751Z,72.80
2018-09-01T20:35:48.756Z,73.00
2018-09-01T20:38:17.380Z,73.20
2018-09-01T20:40:45.893Z,73.50
2018-09-01T20:43:14.308Z,73.80
2018-09-01T20:45:42.784Z,73.80
2018-09-01T20:48:11.364Z,74.10
2018-09-01T20:50:39.823Z,74.20
2018-09-01T20:53:08.480Z,74.50
2018-09-01T20:55:36.974Z,74.50
2018-09-01T20:58:05.476Z,74.80
2018-09-01T21:00:33.968Z,75.30
2018-09-01T21:03:02.393Z,75.60
2018-09-01T21:05:31.608Z,75.70
2018-09-01T21:08:00.401Z,76.00
2018-09-01T21:10:28.918Z,76.30
2018-09-01T21:12:57.371Z,76.20
2018-09-01T21:15:25.871Z,76.30
2018-09-01T21:17:54.299Z,76.90
2018-09-01T21:20:22.754Z,76.60
2018-09-01T21:22:51.213Z,76.90
2018-09-01T21:25:19.666Z,76.80
2018-09-01T21:27:48.108Z,77.00
2018-09-01T21:30:16.692Z,77.20
2018-09-01T21:32:45.136Z,76.90
2018-09-01T21:35:14.920Z,77.20
2018-09-01T21:37:43.481Z,77.80
2018-09-01T21:40:11.906Z,77.70
2018-09-01T21:42:40.375Z,77.80
2018-09-01T21:45:08.823Z,77.80
2018-09-01T21:47:37.283Z,78.40
2018-09-01T21:50:07.175Z,78.50
2018-09-01T21:52:35.728Z,78.20
2018-09-01T21:55:05.432Z,78.30
2018-09-01T21:57:33.940Z,78.90
2018-09-01T22:00:02.370Z,79.00
2018-09-01T22:02:30.822Z,79.30
2018-09-01T22:05:04.626Z,79.70
2018-09-01T22:07:33.081Z,79.90
2018-09-01T22:10:01.595Z,80.20
2018-09-01T22:12:29.971Z,80.60
2018-09-01T22:14:58.422Z,80.80
2018-09-01T22:17:26.944Z,80.70
2018-09-01T22:19:55.386Z,80.90
2018-09-01T22:22:23.846Z,81.20
2018-09-01T22:24:52.298Z,81.30
2018-09-01T22:27:20.771Z,81.40
2018-09-01T22:29:49.200Z,81.70
2018-09-01T22:32:17.684Z,81.80
2018-09-01T22:34:47.061Z,82.20
2018-09-01T22:37:15.533Z,82.70
2018-09-01T22:39:43.972Z,82.70
2018-09-01T22:42:12.446Z,83.30
2018-09-01T22:44:41.867Z,83.20
2018-09-01T22:47:13.807Z,83.40
2018-09-01T22:49:42.232Z,83.90
2018-09-01T22:52:10.683Z,84.10
2018-09-01T22:54:39.100Z,84.40
2018-09-01T22:57:07.547Z,84.60
2018-09-01T22:59:35.985Z,84.70
2018-09-01T23:02:05.530Z,84.70
2018-09-01T23:04:34.028Z,84.50
2018-09-01T23:07:02.494Z,84.80
2018-09-01T23:09:30.919Z,85.20
2018-09-01T23:11:59.369Z,84.90
2018-09-01T23:14:27.784Z,84.80
2018-09-01T23:16:56.233Z,85.30
2018-09-01T23:19:24.685Z,85.50
2018-09-01T23:21:53.143Z,86.30
2018-09-01T23:24:21.566Z,86.30
2018-09-01T23:26:50.137Z,86.70
2018-09-01T23:29:18.568Z,86.90
2018-09-01T23:31:47.015Z,86.80
2018-09-01T23:34:18.114Z,87.00
2018-09-01T23:36:46.675Z,87.10
2018-09-01T23:39:15.100Z,86.70
2018-09-01T23:41:43.596Z,87.30
2018-09-01T23:44:12.064Z,88.30
2018-09-01T23:46:40.607Z,89.00
2018-09-01T23:49:09.089Z,88.60
2018-09-01T23:51:37.529Z,89.20
2018-09-01T23:54:06.093Z,89.60
2018-09-01T23:56:34.615Z,90.00
2018-09-01T23:59:03.150Z,90.10
